sensor_id;sensor_type;location;lat;lon;timestamp;P1;durP1;ratioP1;P2;durP2;ratioP2
8889;SDS011;4481;43.406;24.454;2022-11-25T00:00:51;2.30;;;2.10;;
8889;SDS011;4481;43.406;24.454;2022-11-25T00:03:18;2.90;;;2.03;;
8889;SDS011;4481;43.406;24.454;2022-11-25T00:05:44;2.60;;;2.17;;
8889;SDS011;4481;43.406;24.454;2022-11-25T00:08:10;2.40;;;1.73;;
8889;SDS011;4481;43.406;24.454;2022-11-25T00:10:37;1.80;;;1.70;;
8889;SDS011;4481;43.406;24.454;2022-11-25T00:13:03;4.53;;;2.00;;
8889;SDS011;4481;43.406;24.454;2022-11-25T00:15:29;2.00;;;1.80;;
8889;SDS011;4481;43.406;24.454;2022-11-25T00:17:55;2.40;;;2.20;;
8889;SDS011;4481;43.406;24.454;2022-11-25T00:20:21;2.17;;;1.97;;
8889;SDS011;4481;43.406;24.454;2022-11-25T00:22:48;4.03;;;2.30;;
8889;SDS011;4481;43.406;24.454;2022-11-25T00:25:14;2.83;;;2.13;;
8889;SDS011;4481;43.406;24.454;2022-11-25T00:27:41;1.90;;;1.80;;
8889;SDS011;4481;43.406;24.454;2022-11-25T00:30:08;2.37;;;2.00;;
8889;SDS011;4481;43.406;24.454;2022-11-25T00:32:35;2.67;;;2.03;;
8889;SDS011;4481;43.406;24.454;2022-11-25T00:35:01;3.47;;;2.00;;
8889;SDS011;4481;43.406;24.454;2022-11-25T00:37:27;2.50;;;2.30;;
8889;SDS011;4481;43.406;24.454;2022-11-25T00:39:53;2.97;;;2.60;;
8889;SDS011;4481;43.406;24.454;2022-11-25T00:42:19;2.47;;;2.10;;
8889;SDS011;4481;43.406;24.454;2022-11-25T00:45:05;2.40;;;2.20;;
8889;SDS011;4481;43.406;24.454;2022-11-25T00:47:32;2.80;;;2.30;;
8889;SDS011;4481;43.406;24.454;2022-11-25T00:49:58;3.33;;;2.40;;
8889;SDS011;4481;43.406;24.454;2022-11-25T00:52:25;3.33;;;2.07;;
8889;SDS011;4481;43.406;24.454;2022-11-25T00:54:51;3.90;;;2.30;;
8889;SDS011;4481;43.406;24.454;2022-11-25T00:57:19;2.40;;;2.13;;
8889;SDS011;4481;43.406;24.454;2022-11-25T00:59:46;2.40;;;2.20;;
8889;SDS011;4481;43.406;24.454;2022-11-25T01:02:14;2.53;;;2.27;;
8889;SDS011;4481;43.406;24.454;2022-11-25T01:04:42;4.90;;;2.37;;
8889;SDS011;4481;43.406;24.454;2022-11-25T01:07:08;3.50;;;2.43;;
8889;SDS011;4481;43.406;24.454;2022-11-25T01:09:34;2.43;;;2.23;;
8889;SDS011;4481;43.406;24.454;2022-11-25T01:12:01;2.33;;;2.10;;
8889;SDS011;4481;43.406;24.454;2022-11-25T01:14:28;2.57;;;2.27;;
8889;SDS011;4481;43.406;24.454;2022-11-25T01:16:54;2.97;;;2.27;;
8889;SDS011;4481;43.406;24.454;2022-11-25T01:19:21;3.97;;;2.20;;
8889;SDS011;4481;43.406;24.454;2022-11-25T01:21:48;3.10;;;2.00;;
8889;SDS011;4481;43.406;24.454;2022-11-25T01:24:14;2.40;;;2.20;;
8889;SDS011;4481;43.406;24.454;2022-11-25T01:26:41;2.53;;;2.27;;
8889;SDS011;4481;43.406;24.454;2022-11-25T01:29:11;4.33;;;2.43;;
8889;SDS011;4481;43.406;24.454;2022-11-25T01:31:39;4.13;;;2.30;;
8889;SDS011;4481;43.406;24.454;2022-11-25T01:34:07;2.77;;;2.30;;
8889;SDS011;4481;43.406;24.454;2022-11-25T01:36:37;3.03;;;2.00;;
8889;SDS011;4481;43.406;24.454;2022-11-25T01:39:03;3.67;;;2.10;;
8889;SDS011;4481;43.406;24.454;2022-11-25T01:41:31;2.80;;;2.13;;
8889;SDS011;4481;43.406;24.454;2022-11-25T01:44:04;2.73;;;2.40;;
8889;SDS011;4481;43.406;24.454;2022-11-25T01:46:36;3.23;;;2.70;;
8889;SDS011;4481;43.406;24.454;2022-11-25T01:49:11;2.63;;;2.27;;
8889;SDS011;4481;43.406;24.454;2022-11-25T01:51:45;2.50;;;2.30;;
8889;SDS011;4481;43.406;24.454;2022-11-25T01:54:16;2.47;;;2.27;;
8889;SDS011;4481;43.406;24.454;2022-11-25T01:56:47;2.63;;;2.23;;
8889;SDS011;4481;43.406;24.454;2022-11-25T01:59:19;2.97;;;2.67;;
8889;SDS011;4481;43.406;24.454;2022-11-25T02:01:45;6.60;;;2.97;;
8889;SDS011;4481;43.406;24.454;2022-11-25T02:04:12;5.30;;;3.20;;
8889;SDS011;4481;43.406;24.454;2022-11-25T02:06:44;3.93;;;2.80;;
8889;SDS011;4481;43.406;24.454;2022-11-25T02:09:16;2.70;;;2.47;;
8889;SDS011;4481;43.406;24.454;2022-11-25T02:11:44;3.30;;;3.00;;
8889;SDS011;4481;43.406;24.454;2022-11-25T02:14:11;4.93;;;2.83;;
8889;SDS011;4481;43.406;24.454;2022-11-25T02:16:39;2.57;;;2.37;;
8889;SDS011;4481;43.406;24.454;2022-11-25T02:19:05;3.40;;;2.77;;
8889;SDS011;4481;43.406;24.454;2022-11-25T02:21:42;2.47;;;2.27;;
8889;SDS011;4481;43.406;24.454;2022-11-25T02:24:16;4.27;;;3.03;;
8889;SDS011;4481;43.406;24.454;2022-11-25T02:26:47;3.97;;;3.53;;
8889;SDS011;4481;43.406;24.454;2022-11-25T02:29:13;3.93;;;3.50;;
8889;SDS011;4481;43.406;24.454;2022-11-25T02:31:40;3.07;;;2.77;;
8889;SDS011;4481;43.406;24.454;2022-11-25T02:34:06;4.00;;;3.00;;
8889;SDS011;4481;43.406;24.454;2022-11-25T02:36:33;4.13;;;3.17;;
8889;SDS011;4481;43.406;24.454;2022-11-25T02:38:59;3.93;;;3.33;;
8889;SDS011;4481;43.406;24.454;2022-11-25T02:41:27;4.93;;;3.77;;
8889;SDS011;4481;43.406;24.454;2022-11-25T02:43:57;4.37;;;3.23;;
8889;SDS011;4481;43.406;24.454;2022-11-25T02:46:24;5.47;;;3.33;;
8889;SDS011;4481;43.406;24.454;2022-11-25T02:48:52;3.60;;;2.90;;
8889;SDS011;4481;43.406;24.454;2022-11-25T02:51:21;3.67;;;2.80;;
8889;SDS011;4481;43.406;24.454;2022-11-25T02:53:49;3.20;;;2.90;;
8889;SDS011;4481;43.406;24.454;2022-11-25T02:56:15;6.10;;;3.10;;
8889;SDS011;4481;43.406;24.454;2022-11-25T02:58:43;2.80;;;2.53;;
8889;SDS011;4481;43.406;24.454;2022-11-25T03:01:10;3.47;;;2.70;;
8889;SDS011;4481;43.406;24.454;2022-11-25T03:03:36;3.50;;;3.20;;
8889;SDS011;4481;43.406;24.454;2022-11-25T03:06:03;3.80;;;2.77;;
8889;SDS011;4481;43.406;24.454;2022-11-25T03:08:29;3.53;;;3.23;;
8889;SDS011;4481;43.406;24.454;2022-11-25T03:10:55;4.70;;;2.90;;
8889;SDS011;4481;43.406;24.454;2022-11-25T03:13:21;3.60;;;3.20;;
8889;SDS011;4481;43.406;24.454;2022-11-25T03:15:48;4.87;;;3.23;;
8889;SDS011;4481;43.406;24.454;2022-11-25T03:18:15;4.80;;;3.00;;
8889;SDS011;4481;43.406;24.454;2022-11-25T03:20:41;3.40;;;2.83;;
8889;SDS011;4481;43.406;24.454;2022-11-25T03:23:07;3.30;;;3.00;;
8889;SDS011;4481;43.406;24.454;2022-11-25T03:25:33;3.30;;;2.87;;
8889;SDS011;4481;43.406;24.454;2022-11-25T03:28:00;3.20;;;2.90;;
8889;SDS011;4481;43.406;24.454;2022-11-25T03:30:27;3.97;;;2.77;;
8889;SDS011;4481;43.406;24.454;2022-11-25T03:32:54;3.40;;;3.10;;
8889;SDS011;4481;43.406;24.454;2022-11-25T03:35:21;2.97;;;2.67;;
8889;SDS011;4481;43.406;24.454;2022-11-25T03:37:47;3.70;;;3.00;;
8889;SDS011;4481;43.406;24.454;2022-11-25T03:40:14;3.57;;;3.23;;
8889;SDS011;4481;43.406;24.454;2022-11-25T03:42:41;4.50;;;3.03;;
8889;SDS011;4481;43.406;24.454;2022-11-25T03:45:09;3.90;;;3.20;;
8889;SDS011;4481;43.406;24.454;2022-11-25T03:47:37;5.13;;;3.37;;
8889;SDS011;4481;43.406;24.454;2022-11-25T03:50:04;4.33;;;3.20;;
8889;SDS011;4481;43.406;24.454;2022-11-25T03:52:32;3.97;;;3.20;;
8889;SDS011;4481;43.406;24.454;2022-11-25T03:54:58;4.67;;;3.43;;
8889;SDS011;4481;43.406;24.454;2022-11-25T03:57:24;4.13;;;2.97;;
8889;SDS011;4481;43.406;24.454;2022-11-25T03:59:51;3.47;;;3.07;;
8889;SDS011;4481;43.406;24.454;2022-11-25T04:02:17;5.23;;;3.40;;
8889;SDS011;4481;43.406;24.454;2022-11-25T04:04:43;3.20;;;2.77;;
8889;SDS011;4481;43.406;24.454;2022-11-25T04:07:09;3.50;;;3.20;;
8889;SDS011;4481;43.406;24.454;2022-11-25T04:09:36;6.13;;;3.10;;
8889;SDS011;4481;43.406;24.454;2022-11-25T04:12:03;6.87;;;2.97;;
8889;SDS011;4481;43.406;24.454;2022-11-25T04:14:47;3.70;;;3.40;;
8889;SDS011;4481;43.406;24.454;2022-11-25T04:17:13;3.73;;;3.23;;
8889;SDS011;4481;43.406;24.454;2022-11-25T04:19:40;3.40;;;3.10;;
8889;SDS011;4481;43.406;24.454;2022-11-25T04:22:06;4.03;;;3.17;;
8889;SDS011;4481;43.406;24.454;2022-11-25T04:24:32;4.63;;;3.23;;
8889;SDS011;4481;43.406;24.454;2022-11-25T04:26:59;6.87;;;4.53;;
8889;SDS011;4481;43.406;24.454;2022-11-25T04:29:25;7.67;;;5.37;;
8889;SDS011;4481;43.406;24.454;2022-11-25T04:31:51;4.13;;;3.73;;
8889;SDS011;4481;43.406;24.454;2022-11-25T04:34:18;4.07;;;3.60;;
8889;SDS011;4481;43.406;24.454;2022-11-25T04:36:44;4.37;;;3.60;;
8889;SDS011;4481;43.406;24.454;2022-11-25T04:39:10;3.67;;;3.37;;
8889;SDS011;4481;43.406;24.454;2022-11-25T04:41:36;5.37;;;4.03;;
8889;SDS011;4481;43.406;24.454;2022-11-25T04:44:03;4.40;;;3.30;;
8889;SDS011;4481;43.406;24.454;2022-11-25T04:46:31;3.50;;;3.20;;
8889;SDS011;4481;43.406;24.454;2022-11-25T04:49:01;4.80;;;3.20;;
8889;SDS011;4481;43.406;24.454;2022-11-25T04:51:27;3.00;;;2.73;;
8889;SDS011;4481;43.406;24.454;2022-11-25T04:53:53;3.83;;;3.00;;
8889;SDS011;4481;43.406;24.454;2022-11-25T04:56:19;3.57;;;2.80;;
8889;SDS011;4481;43.406;24.454;2022-11-25T04:58:46;4.47;;;3.73;;
8889;SDS011;4481;43.406;24.454;2022-11-25T05:01:31;5.87;;;3.60;;
8889;SDS011;4481;43.406;24.454;2022-11-25T05:03:57;4.27;;;3.50;;
8889;SDS011;4481;43.406;24.454;2022-11-25T05:06:23;3.90;;;3.30;;
8889;SDS011;4481;43.406;24.454;2022-11-25T05:08:50;7.10;;;3.60;;
8889;SDS011;4481;43.406;24.454;2022-11-25T05:11:16;6.73;;;3.40;;
8889;SDS011;4481;43.406;24.454;2022-11-25T05:13:42;3.20;;;2.90;;
8889;SDS011;4481;43.406;24.454;2022-11-25T05:16:09;3.93;;;3.50;;
8889;SDS011;4481;43.406;24.454;2022-11-25T05:18:36;3.13;;;2.83;;
8889;SDS011;4481;43.406;24.454;2022-11-25T05:21:02;3.30;;;3.00;;
8889;SDS011;4481;43.406;24.454;2022-11-25T05:23:29;5.00;;;3.33;;
8889;SDS011;4481;43.406;24.454;2022-11-25T05:25:57;4.20;;;3.73;;
8889;SDS011;4481;43.406;24.454;2022-11-25T05:28:24;4.20;;;3.67;;
8889;SDS011;4481;43.406;24.454;2022-11-25T05:30:50;3.93;;;3.57;;
8889;SDS011;4481;43.406;24.454;2022-11-25T05:33:16;7.53;;;3.73;;
8889;SDS011;4481;43.406;24.454;2022-11-25T05:35:43;5.87;;;4.27;;
8889;SDS011;4481;43.406;24.454;2022-11-25T05:38:10;4.27;;;3.67;;
8889;SDS011;4481;43.406;24.454;2022-11-25T05:40:36;8.00;;;3.47;;
8889;SDS011;4481;43.406;24.454;2022-11-25T05:43:02;3.97;;;3.43;;
8889;SDS011;4481;43.406;24.454;2022-11-25T05:45:28;4.13;;;3.73;;
8889;SDS011;4481;43.406;24.454;2022-11-25T05:47:54;6.63;;;4.20;;
8889;SDS011;4481;43.406;24.454;2022-11-25T05:50:21;5.73;;;3.97;;
8889;SDS011;4481;43.406;24.454;2022-11-25T05:52:48;6.77;;;4.23;;
8889;SDS011;4481;43.406;24.454;2022-11-25T05:55:14;8.20;;;4.13;;
8889;SDS011;4481;43.406;24.454;2022-11-25T05:57:40;6.60;;;4.47;;
8889;SDS011;4481;43.406;24.454;2022-11-25T06:00:07;5.47;;;4.40;;
8889;SDS011;4481;43.406;24.454;2022-11-25T06:02:34;5.07;;;3.80;;
8889;SDS011;4481;43.406;24.454;2022-11-25T06:05:00;4.63;;;3.90;;
8889;SDS011;4481;43.406;24.454;2022-11-25T06:07:26;6.53;;;4.37;;
8889;SDS011;4481;43.406;24.454;2022-11-25T06:09:53;5.97;;;4.60;;
8889;SDS011;4481;43.406;24.454;2022-11-25T06:12:19;4.77;;;4.27;;
8889;SDS011;4481;43.406;24.454;2022-11-25T06:14:46;5.40;;;4.00;;
8889;SDS011;4481;43.406;24.454;2022-11-25T06:17:12;5.20;;;4.40;;
8889;SDS011;4481;43.406;24.454;2022-11-25T06:19:38;5.37;;;4.33;;
8889;SDS011;4481;43.406;24.454;2022-11-25T06:22:04;6.30;;;4.77;;
8889;SDS011;4481;43.406;24.454;2022-11-25T06:24:31;11.13;;;4.93;;
8889;SDS011;4481;43.406;24.454;2022-11-25T06:26:58;6.37;;;4.77;;
8889;SDS011;4481;43.406;24.454;2022-11-25T06:29:25;10.93;;;4.73;;
8889;SDS011;4481;43.406;24.454;2022-11-25T06:31:51;5.47;;;4.67;;
8889;SDS011;4481;43.406;24.454;2022-11-25T06:34:18;6.17;;;4.70;;
8889;SDS011;4481;43.406;24.454;2022-11-25T06:36:44;5.40;;;4.37;;
8889;SDS011;4481;43.406;24.454;2022-11-25T06:39:11;6.03;;;4.50;;
8889;SDS011;4481;43.406;24.454;2022-11-25T06:41:37;4.67;;;4.20;;
8889;SDS011;4481;43.406;24.454;2022-11-25T06:44:04;5.77;;;4.73;;
8889;SDS011;4481;43.406;24.454;2022-11-25T06:46:30;8.10;;;4.90;;
8889;SDS011;4481;43.406;24.454;2022-11-25T06:48:57;7.73;;;4.80;;
8889;SDS011;4481;43.406;24.454;2022-11-25T06:51:24;10.47;;;5.13;;
8889;SDS011;4481;43.406;24.454;2022-11-25T06:53:50;7.00;;;4.90;;
8889;SDS011;4481;43.406;24.454;2022-11-25T06:56:18;8.50;;;5.43;;
8889;SDS011;4481;43.406;24.454;2022-11-25T06:58:45;5.67;;;4.77;;
8889;SDS011;4481;43.406;24.454;2022-11-25T07:01:14;7.53;;;5.20;;
8889;SDS011;4481;43.406;24.454;2022-11-25T07:03:42;8.70;;;6.03;;
8889;SDS011;4481;43.406;24.454;2022-11-25T07:06:10;6.57;;;4.93;;
8889;SDS011;4481;43.406;24.454;2022-11-25T07:08:37;10.73;;;5.77;;
8889;SDS011;4481;43.406;24.454;2022-11-25T07:11:04;7.33;;;5.03;;
8889;SDS011;4481;43.406;24.454;2022-11-25T07:13:31;7.30;;;5.53;;
8889;SDS011;4481;43.406;24.454;2022-11-25T07:16:01;6.00;;;4.80;;
8889;SDS011;4481;43.406;24.454;2022-11-25T07:18:30;5.87;;;4.73;;
8889;SDS011;4481;43.406;24.454;2022-11-25T07:21:00;6.47;;;5.03;;
8889;SDS011;4481;43.406;24.454;2022-11-25T07:23:28;6.00;;;4.20;;
8889;SDS011;4481;43.406;24.454;2022-11-25T07:25:54;7.17;;;4.97;;
8889;SDS011;4481;43.406;24.454;2022-11-25T07:28:20;8.70;;;4.93;;
8889;SDS011;4481;43.406;24.454;2022-11-25T07:30:47;6.77;;;4.07;;
8889;SDS011;4481;43.406;24.454;2022-11-25T07:33:13;7.63;;;4.83;;
8889;SDS011;4481;43.406;24.454;2022-11-25T07:35:40;7.17;;;5.30;;
8889;SDS011;4481;43.406;24.454;2022-11-25T07:38:07;7.38;;;5.32;;
8889;SDS011;4481;43.406;24.454;2022-11-25T07:40:33;10.63;;;5.53;;
8889;SDS011;4481;43.406;24.454;2022-11-25T07:42:59;6.77;;;4.80;;
8889;SDS011;4481;43.406;24.454;2022-11-25T07:45:25;6.97;;;4.90;;
8889;SDS011;4481;43.406;24.454;2022-11-25T07:47:52;6.43;;;5.27;;
8889;SDS011;4481;43.406;24.454;2022-11-25T07:50:21;5.10;;;4.60;;
8889;SDS011;4481;43.406;24.454;2022-11-25T07:52:49;9.53;;;5.93;;
8889;SDS011;4481;43.406;24.454;2022-11-25T07:55:15;6.37;;;5.67;;
8889;SDS011;4481;43.406;24.454;2022-11-25T07:57:41;6.17;;;5.10;;
8889;SDS011;4481;43.406;24.454;2022-11-25T08:00:08;7.10;;;5.43;;
8889;SDS011;4481;43.406;24.454;2022-11-25T08:02:35;6.37;;;5.37;;
8889;SDS011;4481;43.406;24.454;2022-11-25T08:05:01;8.37;;;4.90;;
8889;SDS011;4481;43.406;24.454;2022-11-25T08:07:28;7.23;;;5.77;;
8889;SDS011;4481;43.406;24.454;2022-11-25T08:09:55;9.07;;;5.27;;
8889;SDS011;4481;43.406;24.454;2022-11-25T08:12:21;6.73;;;5.33;;
8889;SDS011;4481;43.406;24.454;2022-11-25T08:14:47;6.13;;;5.33;;
8889;SDS011;4481;43.406;24.454;2022-11-25T08:17:13;7.43;;;5.37;;
8889;SDS011;4481;43.406;24.454;2022-11-25T08:19:40;7.63;;;5.57;;
8889;SDS011;4481;43.406;24.454;2022-11-25T08:22:10;8.53;;;5.87;;
8889;SDS011;4481;43.406;24.454;2022-11-25T08:24:37;8.93;;;5.53;;
8889;SDS011;4481;43.406;24.454;2022-11-25T08:27:04;7.53;;;5.70;;
8889;SDS011;4481;43.406;24.454;2022-11-25T08:29:30;7.60;;;5.23;;
8889;SDS011;4481;43.406;24.454;2022-11-25T08:31:56;9.23;;;6.17;;
8889;SDS011;4481;43.406;24.454;2022-11-25T08:34:23;7.77;;;5.70;;
8889;SDS011;4481;43.406;24.454;2022-11-25T08:36:49;10.17;;;6.50;;
8889;SDS011;4481;43.406;24.454;2022-11-25T08:39:19;9.53;;;6.20;;
8889;SDS011;4481;43.406;24.454;2022-11-25T08:41:46;7.83;;;5.63;;
8889;SDS011;4481;43.406;24.454;2022-11-25T08:44:14;9.77;;;5.33;;
8889;SDS011;4481;43.406;24.454;2022-11-25T08:46:40;6.90;;;5.80;;
8889;SDS011;4481;43.406;24.454;2022-11-25T08:49:07;7.20;;;5.67;;
8889;SDS011;4481;43.406;24.454;2022-11-25T08:51:36;7.43;;;4.93;;
8889;SDS011;4481;43.406;24.454;2022-11-25T08:54:03;7.17;;;5.63;;
8889;SDS011;4481;43.406;24.454;2022-11-25T08:56:30;8.07;;;5.50;;
8889;SDS011;4481;43.406;24.454;2022-11-25T08:58:57;10.40;;;5.53;;
8889;SDS011;4481;43.406;24.454;2022-11-25T09:01:25;7.40;;;4.90;;
8889;SDS011;4481;43.406;24.454;2022-11-25T09:03:52;5.20;;;4.70;;
8889;SDS011;4481;43.406;24.454;2022-11-25T09:06:19;9.13;;;5.67;;
8889;SDS011;4481;43.406;24.454;2022-11-25T09:08:46;7.83;;;5.80;;
8889;SDS011;4481;43.406;24.454;2022-11-25T09:11:13;7.93;;;6.40;;
8889;SDS011;4481;43.406;24.454;2022-11-25T09:13:41;7.20;;;5.20;;
8889;SDS011;4481;43.406;24.454;2022-11-25T09:16:07;7.87;;;6.23;;
8889;SDS011;4481;43.406;24.454;2022-11-25T09:18:35;6.83;;;6.00;;
8889;SDS011;4481;43.406;24.454;2022-11-25T09:21:05;9.27;;;6.20;;
8889;SDS011;4481;43.406;24.454;2022-11-25T09:23:33;7.83;;;6.37;;
8889;SDS011;4481;43.406;24.454;2022-11-25T09:25:59;14.10;;;6.23;;
8889;SDS011;4481;43.406;24.454;2022-11-25T09:28:25;8.37;;;6.50;;
8889;SDS011;4481;43.406;24.454;2022-11-25T09:30:52;8.17;;;6.17;;
8889;SDS011;4481;43.406;24.454;2022-11-25T09:33:18;9.93;;;6.47;;
8889;SDS011;4481;43.406;24.454;2022-11-25T09:35:45;8.63;;;6.07;;
8889;SDS011;4481;43.406;24.454;2022-11-25T09:38:14;7.97;;;5.60;;
8889;SDS011;4481;43.406;24.454;2022-11-25T09:40:42;9.63;;;6.13;;
8889;SDS011;4481;43.406;24.454;2022-11-25T09:43:16;6.33;;;5.60;;
8889;SDS011;4481;43.406;24.454;2022-11-25T09:46:11;8.10;;;5.87;;
8889;SDS011;4481;43.406;24.454;2022-11-25T09:49:13;6.93;;;6.07;;
8889;SDS011;4481;43.406;24.454;2022-11-25T09:51:54;6.20;;;5.60;;
8889;SDS011;4481;43.406;24.454;2022-11-25T09:54:26;8.33;;;6.00;;
8889;SDS011;4481;43.406;24.454;2022-11-25T09:56:58;8.40;;;5.70;;
8889;SDS011;4481;43.406;24.454;2022-11-25T09:59:33;9.63;;;6.53;;
8889;SDS011;4481;43.406;24.454;2022-11-25T10:02:09;9.03;;;6.07;;
8889;SDS011;4481;43.406;24.454;2022-11-25T10:04:42;8.30;;;6.40;;
8889;SDS011;4481;43.406;24.454;2022-11-25T10:07:16;6.47;;;5.27;;
8889;SDS011;4481;43.406;24.454;2022-11-25T10:09:47;7.77;;;6.33;;
8889;SDS011;4481;43.406;24.454;2022-11-25T10:12:16;13.17;;;6.23;;
8889;SDS011;4481;43.406;24.454;2022-11-25T10:14:47;7.47;;;6.17;;
8889;SDS011;4481;43.406;24.454;2022-11-25T10:17:17;8.83;;;6.03;;
8889;SDS011;4481;43.406;24.454;2022-11-25T10:19:56;10.10;;;6.37;;
8889;SDS011;4481;43.406;24.454;2022-11-25T10:22:29;8.73;;;6.03;;
8889;SDS011;4481;43.406;24.454;2022-11-25T10:24:58;7.43;;;5.53;;
8889;SDS011;4481;43.406;24.454;2022-11-25T10:27:28;12.17;;;7.37;;
8889;SDS011;4481;43.406;24.454;2022-11-25T10:30:03;10.80;;;7.30;;
8889;SDS011;4481;43.406;24.454;2022-11-25T10:32:39;14.23;;;7.87;;
8889;SDS011;4481;43.406;24.454;2022-11-25T10:35:13;9.87;;;6.77;;
8889;SDS011;4481;43.406;24.454;2022-11-25T10:37:46;12.37;;;8.20;;
8889;SDS011;4481;43.406;24.454;2022-11-25T10:40:19;9.50;;;7.03;;
8889;SDS011;4481;43.406;24.454;2022-11-25T10:42:45;7.80;;;5.93;;
8889;SDS011;4481;43.406;24.454;2022-11-25T10:45:12;7.23;;;5.97;;
8889;SDS011;4481;43.406;24.454;2022-11-25T10:47:49;7.27;;;5.73;;
8889;SDS011;4481;43.406;24.454;2022-11-25T10:50:31;8.70;;;5.97;;
8889;SDS011;4481;43.406;24.454;2022-11-25T10:53:08;7.13;;;5.83;;
8889;SDS011;4481;43.406;24.454;2022-11-25T10:55:54;9.93;;;5.83;;
8889;SDS011;4481;43.406;24.454;2022-11-25T10:58:25;8.90;;;6.43;;
8889;SDS011;4481;43.406;24.454;2022-11-25T11:01:04;8.27;;;5.37;;
8889;SDS011;4481;43.406;24.454;2022-11-25T11:03:37;7.13;;;5.60;;
8889;SDS011;4481;43.406;24.454;2022-11-25T11:06:04;6.13;;;5.30;;
8889;SDS011;4481;43.406;24.454;2022-11-25T11:08:36;7.33;;;6.10;;
8889;SDS011;4481;43.406;24.454;2022-11-25T11:11:08;8.00;;;5.13;;
8889;SDS011;4481;43.406;24.454;2022-11-25T11:13:39;7.90;;;5.73;;
8889;SDS011;4481;43.406;24.454;2022-11-25T11:16:19;7.93;;;5.20;;
8889;SDS011;4481;43.406;24.454;2022-11-25T11:18:50;7.00;;;5.20;;
8889;SDS011;4481;43.406;24.454;2022-11-25T11:21:21;8.20;;;5.60;;
8889;SDS011;4481;43.406;24.454;2022-11-25T11:23:50;6.50;;;5.23;;
8889;SDS011;4481;43.406;24.454;2022-11-25T11:26:21;7.07;;;4.77;;
8889;SDS011;4481;43.406;24.454;2022-11-25T11:28:55;6.63;;;5.77;;
8889;SDS011;4481;43.406;24.454;2022-11-25T11:31:24;7.30;;;5.97;;
8889;SDS011;4481;43.406;24.454;2022-11-25T11:33:54;9.57;;;6.33;;
8889;SDS011;4481;43.406;24.454;2022-11-25T11:36:29;7.00;;;5.37;;
8889;SDS011;4481;43.406;24.454;2022-11-25T11:39:09;7.27;;;5.50;;
8889;SDS011;4481;43.406;24.454;2022-11-25T11:41:50;7.83;;;5.77;;
8889;SDS011;4481;43.406;24.454;2022-11-25T11:44:27;6.87;;;5.53;;
8889;SDS011;4481;43.406;24.454;2022-11-25T11:47:03;7.10;;;5.90;;
8889;SDS011;4481;43.406;24.454;2022-11-25T11:49:52;7.60;;;6.40;;
8889;SDS011;4481;43.406;24.454;2022-11-25T11:52:29;9.30;;;5.70;;
8889;SDS011;4481;43.406;24.454;2022-11-25T11:55:12;7.80;;;5.43;;
8889;SDS011;4481;43.406;24.454;2022-11-25T11:57:52;8.23;;;6.33;;
8889;SDS011;4481;43.406;24.454;2022-11-25T12:00:28;6.40;;;5.53;;
8889;SDS011;4481;43.406;24.454;2022-11-25T12:02:59;6.17;;;5.30;;
8889;SDS011;4481;43.406;24.454;2022-11-25T12:05:35;8.03;;;5.13;;
8889;SDS011;4481;43.406;24.454;2022-11-25T12:08:04;7.07;;;5.20;;
8889;SDS011;4481;43.406;24.454;2022-11-25T12:10:37;11.33;;;5.40;;
8889;SDS011;4481;43.406;24.454;2022-11-25T12:13:08;7.73;;;5.80;;
8889;SDS011;4481;43.406;24.454;2022-11-25T12:15:42;7.53;;;5.57;;
8889;SDS011;4481;43.406;24.454;2022-11-25T12:18:18;7.60;;;6.03;;
8889;SDS011;4481;43.406;24.454;2022-11-25T12:20:56;8.90;;;6.70;;
8889;SDS011;4481;43.406;24.454;2022-11-25T12:23:28;8.23;;;6.50;;
8889;SDS011;4481;43.406;24.454;2022-11-25T12:26:08;8.47;;;6.33;;
8889;SDS011;4481;43.406;24.454;2022-11-25T12:28:39;12.90;;;6.20;;
8889;SDS011;4481;43.406;24.454;2022-11-25T12:31:11;8.60;;;6.43;;
8889;SDS011;4481;43.406;24.454;2022-11-25T12:33:45;9.47;;;7.07;;
8889;SDS011;4481;43.406;24.454;2022-11-25T12:36:19;7.67;;;6.67;;
8889;SDS011;4481;43.406;24.454;2022-11-25T12:38:52;7.67;;;5.73;;
8889;SDS011;4481;43.406;24.454;2022-11-25T12:41:23;9.20;;;7.00;;
8889;SDS011;4481;43.406;24.454;2022-11-25T12:43:57;11.60;;;7.27;;
8889;SDS011;4481;43.406;24.454;2022-11-25T12:46:28;9.13;;;6.70;;
8889;SDS011;4481;43.406;24.454;2022-11-25T12:48:59;7.87;;;6.93;;
8889;SDS011;4481;43.406;24.454;2022-11-25T12:51:34;8.53;;;6.60;;
8889;SDS011;4481;43.406;24.454;2022-11-25T12:54:15;11.40;;;7.17;;
8889;SDS011;4481;43.406;24.454;2022-11-25T12:56:55;13.07;;;7.33;;
8889;SDS011;4481;43.406;24.454;2022-11-25T12:59:49;9.70;;;7.13;;
8889;SDS011;4481;43.406;24.454;2022-11-25T13:02:32;9.57;;;6.33;;
8889;SDS011;4481;43.406;24.454;2022-11-25T13:05:29;9.60;;;7.07;;
8889;SDS011;4481;43.406;24.454;2022-11-25T13:08:20;8.20;;;6.47;;
8889;SDS011;4481;43.406;24.454;2022-11-25T13:10:59;8.87;;;7.17;;
8889;SDS011;4481;43.406;24.454;2022-11-25T13:13:46;8.60;;;7.07;;
8889;SDS011;4481;43.406;24.454;2022-11-25T13:16:17;8.37;;;7.10;;
8889;SDS011;4481;43.406;24.454;2022-11-25T13:18:44;12.47;;;7.27;;
8889;SDS011;4481;43.406;24.454;2022-11-25T13:21:12;11.77;;;7.77;;
8889;SDS011;4481;43.406;24.454;2022-11-25T13:23:49;12.00;;;7.77;;
8889;SDS011;4481;43.406;24.454;2022-11-25T13:26:33;13.17;;;8.10;;
8889;SDS011;4481;43.406;24.454;2022-11-25T13:32:25;11.87;;;7.83;;
8889;SDS011;4481;43.406;24.454;2022-11-25T13:38:00;9.80;;;7.17;;
8889;SDS011;4481;43.406;24.454;2022-11-25T13:40:37;9.60;;;7.70;;
8889;SDS011;4481;43.406;24.454;2022-11-25T13:43:04;12.87;;;9.13;;
8889;SDS011;4481;43.406;24.454;2022-11-25T13:45:44;10.37;;;7.90;;
8889;SDS011;4481;43.406;24.454;2022-11-25T13:48:13;10.63;;;7.87;;
8889;SDS011;4481;43.406;24.454;2022-11-25T13:50:43;8.60;;;7.20;;
8889;SDS011;4481;43.406;24.454;2022-11-25T13:53:17;9.30;;;7.60;;
8889;SDS011;4481;43.406;24.454;2022-11-25T13:55:45;9.90;;;7.70;;
8889;SDS011;4481;43.406;24.454;2022-11-25T13:58:18;11.87;;;8.40;;
8889;SDS011;4481;43.406;24.454;2022-11-25T14:00:47;13.63;;;8.97;;
8889;SDS011;4481;43.406;24.454;2022-11-25T14:03:43;11.23;;;8.33;;
8889;SDS011;4481;43.406;24.454;2022-11-25T14:06:16;11.13;;;8.70;;
8889;SDS011;4481;43.406;24.454;2022-11-25T14:08:53;13.27;;;9.27;;
8889;SDS011;4481;43.406;24.454;2022-11-25T14:17:21;10.87;;;8.20;;
8889;SDS011;4481;43.406;24.454;2022-11-25T14:20:15;11.87;;;8.40;;
8889;SDS011;4481;43.406;24.454;2022-11-25T14:25:45;12.93;;;8.70;;
8889;SDS011;4481;43.406;24.454;2022-11-25T14:28:19;14.00;;;8.67;;
8889;SDS011;4481;43.406;24.454;2022-11-25T14:30:51;13.63;;;9.50;;
8889;SDS011;4481;43.406;24.454;2022-11-25T14:33:22;13.30;;;10.37;;
8889;SDS011;4481;43.406;24.454;2022-11-25T14:35:52;13.87;;;9.00;;
8889;SDS011;4481;43.406;24.454;2022-11-25T14:38:26;14.67;;;10.13;;
8889;SDS011;4481;43.406;24.454;2022-11-25T14:41:02;10.17;;;8.97;;
8889;SDS011;4481;43.406;24.454;2022-11-25T14:43:34;13.13;;;10.03;;
8889;SDS011;4481;43.406;24.454;2022-11-25T14:46:09;9.43;;;7.97;;
8889;SDS011;4481;43.406;24.454;2022-11-25T14:48:39;11.57;;;8.20;;
8889;SDS011;4481;43.406;24.454;2022-11-25T14:51:07;9.47;;;8.20;;
8889;SDS011;4481;43.406;24.454;2022-11-25T14:53:38;9.90;;;8.00;;
8889;SDS011;4481;43.406;24.454;2022-11-25T14:56:07;9.87;;;8.23;;
8889;SDS011;4481;43.406;24.454;2022-11-25T14:58:33;12.00;;;9.27;;
8889;SDS011;4481;43.406;24.454;2022-11-25T15:01:06;14.83;;;8.00;;
8889;SDS011;4481;43.406;24.454;2022-11-25T15:03:41;10.37;;;8.43;;
8889;SDS011;4481;43.406;24.454;2022-11-25T15:06:10;14.07;;;9.50;;
8889;SDS011;4481;43.406;24.454;2022-11-25T15:08:39;12.17;;;9.03;;
8889;SDS011;4481;43.406;24.454;2022-11-25T15:11:08;12.20;;;8.73;;
8889;SDS011;4481;43.406;24.454;2022-11-25T15:13:39;14.87;;;10.50;;
8889;SDS011;4481;43.406;24.454;2022-11-25T15:16:09;21.37;;;11.00;;
8889;SDS011;4481;43.406;24.454;2022-11-25T15:18:42;16.47;;;11.60;;
8889;SDS011;4481;43.406;24.454;2022-11-25T15:21:14;15.43;;;11.33;;
8889;SDS011;4481;43.406;24.454;2022-11-25T15:23:42;19.93;;;15.40;;
8889;SDS011;4481;43.406;24.454;2022-11-25T15:26:15;17.40;;;14.57;;
8889;SDS011;4481;43.406;24.454;2022-11-25T15:28:43;25.67;;;15.03;;